398  
UXUS97 KREV 071315  
SRGREV  
 
SOARING FORECAST  
NATIONAL WEATHER SERVICE - RENO NV  
700 AM PDT SUN AUG 7 2022  
 
THIS SOARING FORECAST IS FOR THE EASTERN SIERRA AND WESTERN NEVADA  
WITH SPECIFIC INDICES FOR THE GREATER RENO AREA.  
 
THIS FORECAST IS PREPARED DAILY BY 700 AM AND IS NOT UPDATED.  
 
FOR CURRENT FLIGHT CONDITIONS...FORECASTS...AND ADVISORIES...ACCESS  
YOUR LOCAL BRIEFING OUTLET OR FLIGHT SERVICE STATION.  
 
*******************************************************************  
FORECASTED LOCAL INDICES FOR RENO: TODAY YESTERDAY  
FORECASTED MAX TEMP AT RENO (DEG F)..... 96 92  
FORECASTED TRIGGER TEMPERATURE (DEG F).. 80 74  
EXCEEDED YESTERDAY BY 955 AM PDT  
FORECASTED MAXIMUM ALTITUDE (FT MSL).... 17700 16800  
FORECASTED SOARING INDEX (FPM).......... 1161 1014  
FORECASTED K-INDEX.........VALID 18Z.... 30 26  
FORECASTED K-INDEX.........VALID 00Z.... 29 27  
FORECASTED LIFTED INDEX....VALID 18Z.... 1 2  
FORECASTED LIFTED INDEX....VALID 00Z.... -1 -1  
 
AFTERNOON WINDS ALOFT FORECAST  
MSL (FT) WIND/TEMP  
9000 9900/+18  
10000 9903/+15  
12000 1308/+10  
14000 1409/+04  
16000 1611/-01  
18000 1816/-07  
24000 2024/-18  
30000 2245/-33  
34000 2244/-43  
39000 2239/-51  
 
SLIDE MOUNTAIN DATA:  
DATE TIME TEMP DEWPT RH WIND (MPH)  
(F) (F) | DIR SPEED GUST  
2022-08-07 05:20 54 42 55 | 121 16 23  
2022-08-07 05:00 54 42 54 | 115 17 24  
2022-08-07 04:50 54 42 52 | 106 18 25  
2022-08-07 04:30 54 42 52 | 111 18 25  
 
SIERRA CREST 8700 FT DATA:  
DATE TIME TEMP RH WIND  
DIR SPEED GUST  
2022-08-07 0545 57 64 162 0 0  
2022-08-07 0530 57 66 160 0 0  
2022-08-07 0515 57 66 160 0 0  
2022-08-07 0500 57 66 160 0 0  
 
RENO TAF FORECAST:  
KRNO 071120Z 0712/0812 VRB05KT P6SM SKC  
FM072100 17009KT P6SM SCT090  
FM080100 28010KT P6SM SCT100  
FM080400 VRB05KT P6SM FEW120  
 
CARSON CITY TAF FORECAST:  
KCXP 071120Z 0712/0812 VRB05KT P6SM SKC  
FM072000 14010KT P6SM SCT090  
FM072300 28009KT P6SM SCT100  
FM080400 VRB04KT P6SM SCT120  
 
MINDEN TAF FORECAST:  
KMEV 071120Z 0712/0812 12005KT P6SM SKC  
FM072200 25010KT P6SM SCT090  
FM080400 13004KT P6SM SCT120  
 
OUTLOOK FOR THE RENO-CARSON CITY-MINDEN AREA:   
MONDAY
 
SUNNY IN THE MORNING, THEN PARTLY CLOUDY WITH ISOLATED  
SHOWERS AND THUNDERSTORMS IN THE AFTERNOON. HIGHS 90 TO 95. LIGHT  
WINDS BECOMING SOUTHEAST AROUND 10 MPH IN THE AFTERNOON.  
 
SUNRISE AND SUNSET  
AUGUST 7 2022........SUNRISE 604 AM PDT SUNSET 805 PM PDT  
AUGUST 8 2022........SUNRISE 605 AM PDT SUNSET 804 PM PDT  
 
CLICK HERE TO GO TO PREVIOUS BULLETINS.

The Nexlab NV Page
The Nexlab CA Page Main Text Page